KFLG/FLG METAR and TAF weather

Enter ICAO airport designator
Station Type Date Time Source
KFLG METAR 2022/11/27 07:57 UTC NOAA

KFLG 270757Z AUTO 26007KT 10SM CLR M01/M12 A3008 RMK AO2 SLP139 T10061122


Station Type Date Time Source
KFLG Decoded METAR 2022/11/27 07:57 UTC NOAA

FLAGSTAFF PULLIAM AIRPORT, AZ, United States (KFLG) 35-08N 111-40W 2134M
Nov 27, 2022 - 02:57 AM EST / 2022.11.27 0757 UTC
Wind: from the W (260 degrees) at 8 MPH (7 KT):0
Visibility: 10 mile(s):0
Sky conditions: clear
Temperature: 30.9 F (-0.6 C)
Windchill: 23 F (-5 C):1
Dew Point: 10.0 F (-12.2 C)
Relative Humidity: 41%
Pressure (altimeter): 30.08 in. Hg (1018 hPa)
ob: KFLG 270757Z AUTO 26007KT 10SM CLR M01/M12 A3008 RMK AO2 SLP139 T10061122
cycle: 8

Station Type Date Time Source
KFLG TAF 2022/11/27 06:22 UTC NOAA

TAF KFLG 270520Z 2706/2806 VRB03KT P6SM FEW250
FM271800 23008G16KT P6SM FEW250
FM280200 23005KT P6SM FEW250

Example: see airport list